sensor_id;sensor_type;location;lat;lon;timestamp;pressure;altitude;pressure_sealevel;temperature;humidity
44675;BME280;30388;52.038;-1.478;2023-03-08T00:00:45;64741.74;;;1.21;100.00
44675;BME280;30388;52.038;-1.478;2023-03-08T00:03:13;64784.38;;;1.26;100.00
44675;BME280;30388;52.038;-1.478;2023-03-08T00:05:40;64742.06;;;1.21;100.00
44675;BME280;30388;52.038;-1.478;2023-03-08T00:08:08;64736.85;;;0.88;100.00
44675;BME280;30388;52.038;-1.478;2023-03-08T00:10:36;64717.73;;;0.90;100.00
44675;BME280;30388;52.038;-1.478;2023-03-08T00:13:03;64739.37;;;1.18;100.00
44675;BME280;30388;52.038;-1.478;2023-03-08T00:15:30;64723.02;;;0.70;100.00
44675;BME280;30388;52.038;-1.478;2023-03-08T00:17:58;64744.79;;;1.24;100.00
44675;BME280;30388;52.038;-1.478;2023-03-08T00:20:25;64723.55;;;0.97;100.00
44675;BME280;30388;52.038;-1.478;2023-03-08T00:22:52;64735.69;;;1.12;100.00
44675;BME280;30388;52.038;-1.478;2023-03-08T00:25:19;64748.97;;;1.03;100.00
44675;BME280;30388;52.038;-1.478;2023-03-08T00:38:58;64681.53;;;1.15;100.00
44675;BME280;30388;52.038;-1.478;2023-03-08T00:41:24;64734.65;;;-0.35;100.00
44675;BME280;30388;52.038;-1.478;2023-03-08T00:43:51;64736.87;;;0.87;100.00
44675;BME280;30388;52.038;-1.478;2023-03-08T00:46:18;64737.53;;;1.15;100.00
44675;BME280;30388;52.038;-1.478;2023-03-08T00:48:46;64734.71;;;1.12;100.00
44675;BME280;30388;52.038;-1.478;2023-03-08T00:51:15;64697.76;;;0.65;100.00
44675;BME280;30388;52.038;-1.478;2023-03-08T00:53:43;64694.87;;;0.83;100.00
44675;BME280;30388;52.038;-1.478;2023-03-08T00:56:11;64668.38;;;0.49;100.00
44675;BME280;30388;52.038;-1.478;2023-03-08T00:58:40;64669.34;;;0.73;100.00
44675;BME280;30388;52.038;-1.478;2023-03-08T01:01:08;64608.72;;;-0.05;100.00
44675;BME280;30388;52.038;-1.478;2023-03-08T01:03:37;64614.82;;;0.04;100.00
44675;BME280;30388;52.038;-1.478;2023-03-08T01:06:08;64653.09;;;0.29;100.00
44675;BME280;30388;52.038;-1.478;2023-03-08T01:08:35;64673.94;;;0.56;100.00
44675;BME280;30388;52.038;-1.478;2023-03-08T01:11:03;64621.43;;;0.11;100.00
44675;BME280;30388;52.038;-1.478;2023-03-08T01:13:31;64636.52;;;0.31;100.00
44675;BME280;30388;52.038;-1.478;2023-03-08T01:15:59;64665.58;;;0.68;100.00
44675;BME280;30388;52.038;-1.478;2023-03-08T01:18:26;64658.40;;;0.37;100.00
44675;BME280;30388;52.038;-1.478;2023-03-08T01:20:56;64645.40;;;0.42;100.00
44675;BME280;30388;52.038;-1.478;2023-03-08T01:23:23;64661.31;;;0.18;100.00
44675;BME280;30388;52.038;-1.478;2023-03-08T01:25:57;64648.11;;;0.24;100.00
44675;BME280;30388;52.038;-1.478;2023-03-08T01:28:24;64665.42;;;0.45;100.00
44675;BME280;30388;52.038;-1.478;2023-03-08T01:30:52;64646.11;;;0.21;100.00
44675;BME280;30388;52.038;-1.478;2023-03-08T01:33:19;64617.30;;;0.06;100.00
44675;BME280;30388;52.038;-1.478;2023-03-08T01:35:47;64646.31;;;0.21;100.00
44675;BME280;30388;52.038;-1.478;2023-03-08T01:38:13;64620.99;;;0.11;100.00
44675;BME280;30388;52.038;-1.478;2023-03-08T01:40:41;64597.68;;;0.07;100.00
44675;BME280;30388;52.038;-1.478;2023-03-08T01:43:21;64599.07;;;-0.17;100.00
44675;BME280;30388;52.038;-1.478;2023-03-08T01:46:11;64546.53;;;-0.57;100.00
44675;BME280;30388;52.038;-1.478;2023-03-08T01:48:44;64546.44;;;-0.35;100.00
44675;BME280;30388;52.038;-1.478;2023-03-08T01:51:16;64573.33;;;-0.23;100.00
44675;BME280;30388;52.038;-1.478;2023-03-08T01:53:46;64591.11;;;0.22;100.00
44675;BME280;30388;52.038;-1.478;2023-03-08T01:56:14;64638.78;;;0.34;100.00
44675;BME280;30388;52.038;-1.478;2023-03-08T01:58:45;64634.99;;;0.29;100.00
44675;BME280;30388;52.038;-1.478;2023-03-08T02:01:13;64601.36;;;-0.14;100.00
44675;BME280;30388;52.038;-1.478;2023-03-08T02:03:41;64596.86;;;-0.20;100.00
44675;BME280;30388;52.038;-1.478;2023-03-08T02:06:09;64550.91;;;-0.29;100.00
44675;BME280;30388;52.038;-1.478;2023-03-08T02:08:36;64533.95;;;-0.52;100.00
44675;BME280;30388;52.038;-1.478;2023-03-08T02:11:03;64518.13;;;-0.45;100.00
44675;BME280;30388;52.038;-1.478;2023-03-08T02:13:30;64529.21;;;-0.79;100.00
44675;BME280;30388;52.038;-1.478;2023-03-08T02:16:00;64536.89;;;-0.48;100.00
44675;BME280;30388;52.038;-1.478;2023-03-08T02:18:28;64554.98;;;-0.73;100.00
44675;BME280;30388;52.038;-1.478;2023-03-08T02:20:56;64575.01;;;0.01;100.00
44675;BME280;30388;52.038;-1.478;2023-03-08T02:23:24;64595.24;;;-0.21;100.00
44675;BME280;30388;52.038;-1.478;2023-03-08T02:25:54;64535.15;;;-0.50;100.00
44675;BME280;30388;52.038;-1.478;2023-03-08T02:28:23;64518.38;;;-0.71;100.00
44675;BME280;30388;52.038;-1.478;2023-03-08T02:30:52;64540.13;;;-0.65;100.00
44675;BME280;30388;52.038;-1.478;2023-03-08T02:33:21;64543.06;;;-0.62;100.00
44675;BME280;30388;52.038;-1.478;2023-03-08T02:35:49;64535.29;;;-0.49;100.00
44675;BME280;30388;52.038;-1.478;2023-03-08T02:38:18;64532.56;;;-0.53;100.00
44675;BME280;30388;52.038;-1.478;2023-03-08T02:40:46;64514.50;;;-0.76;100.00
44675;BME280;30388;52.038;-1.478;2023-03-08T02:43:13;64511.97;;;-0.80;100.00
44675;BME280;30388;52.038;-1.478;2023-03-08T02:45:41;64511.26;;;-0.79;100.00
44675;BME280;30388;52.038;-1.478;2023-03-08T02:48:08;64543.86;;;-0.61;100.00
44675;BME280;30388;52.038;-1.478;2023-03-08T02:50:35;64561.39;;;-0.16;100.00
44675;BME280;30388;52.038;-1.478;2023-03-08T02:53:02;64574.97;;;-0.48;100.00
44675;BME280;30388;52.038;-1.478;2023-03-08T02:55:31;64561.41;;;-0.38;100.00
44675;BME280;30388;52.038;-1.478;2023-03-08T02:57:58;64525.31;;;-0.62;100.00
44675;BME280;30388;52.038;-1.478;2023-03-08T03:00:25;64549.65;;;-0.81;100.00
44675;BME280;30388;52.038;-1.478;2023-03-08T03:02:52;64544.96;;;-0.60;100.00
44675;BME280;30388;52.038;-1.478;2023-03-08T03:05:19;64527.66;;;-0.82;100.00
44675;BME280;30388;52.038;-1.478;2023-03-08T03:07:46;64517.06;;;-0.73;100.00
44675;BME280;30388;52.038;-1.478;2023-03-08T03:10:14;64500.57;;;-0.68;100.00
44675;BME280;30388;52.038;-1.478;2023-03-08T03:14:05;64494.42;;;-0.53;100.00
44675;BME280;30388;52.038;-1.478;2023-03-08T03:16:32;64516.44;;;-1.23;100.00
44675;BME280;30388;52.038;-1.478;2023-03-08T03:18:59;64534.24;;;-0.51;100.00
44675;BME280;30388;52.038;-1.478;2023-03-08T03:21:26;64560.79;;;-0.66;100.00
44675;BME280;30388;52.038;-1.478;2023-03-08T03:23:54;64561.79;;;-0.65;100.00
44675;BME280;30388;52.038;-1.478;2023-03-08T03:26:22;64547.96;;;-0.56;100.00
44675;BME280;30388;52.038;-1.478;2023-03-08T03:28:50;64537.39;;;-0.47;100.00
44675;BME280;30388;52.038;-1.478;2023-03-08T03:31:18;64538.30;;;-0.67;100.00
44675;BME280;30388;52.038;-1.478;2023-03-08T03:33:48;64501.98;;;-0.92;100.00
44675;BME280;30388;52.038;-1.478;2023-03-08T03:36:17;64498.52;;;-0.97;100.00
44675;BME280;30388;52.038;-1.478;2023-03-08T03:38:45;64501.92;;;-0.92;100.00
44675;BME280;30388;52.038;-1.478;2023-03-08T03:41:14;64511.56;;;-0.80;100.00
44675;BME280;30388;52.038;-1.478;2023-03-08T03:43:42;64518.40;;;-0.72;100.00
44675;BME280;30388;52.038;-1.478;2023-03-08T03:46:12;64501.28;;;-0.94;100.00
44675;BME280;30388;52.038;-1.478;2023-03-08T03:48:40;64500.21;;;-0.95;100.00
44675;BME280;30388;52.038;-1.478;2023-03-08T03:51:10;64534.81;;;-0.50;100.00
44675;BME280;30388;52.038;-1.478;2023-03-08T03:53:43;64521.91;;;-0.67;100.00
44675;BME280;30388;52.038;-1.478;2023-03-08T03:56:13;64485.29;;;-0.86;100.00
44675;BME280;30388;52.038;-1.478;2023-03-08T03:58:40;64509.33;;;-0.56;100.00
44675;BME280;30388;52.038;-1.478;2023-03-08T04:01:08;64468.71;;;-1.08;100.00
44675;BME280;30388;52.038;-1.478;2023-03-08T04:03:36;64458.78;;;-0.99;100.00
44675;BME280;30388;52.038;-1.478;2023-03-08T04:06:07;64435.97;;;-1.28;100.00
44675;BME280;30388;52.038;-1.478;2023-03-08T04:08:34;64452.19;;;-1.07;100.00
44675;BME280;30388;52.038;-1.478;2023-03-08T04:11:01;64457.33;;;-1.00;100.00
44675;BME280;30388;52.038;-1.478;2023-03-08T04:13:29;64434.60;;;-1.52;100.00
44675;BME280;30388;52.038;-1.478;2023-03-08T04:15:56;64455.34;;;-1.04;100.00
44675;BME280;30388;52.038;-1.478;2023-03-08T04:18:23;64465.27;;;-0.91;100.00
44675;BME280;30388;52.038;-1.478;2023-03-08T04:20:50;64472.22;;;-0.82;100.00
44675;BME280;30388;52.038;-1.478;2023-03-08T04:23:18;64450.48;;;-1.09;100.00
44675;BME280;30388;52.038;-1.478;2023-03-08T04:25:47;64426.93;;;-1.39;100.00
44675;BME280;30388;52.038;-1.478;2023-03-08T04:28:14;64433.93;;;-1.31;100.00
44675;BME280;30388;52.038;-1.478;2023-03-08T04:30:41;64431.36;;;-1.34;100.00
44675;BME280;30388;52.038;-1.478;2023-03-08T04:33:09;64421.89;;;-1.46;100.00
44675;BME280;30388;52.038;-1.478;2023-03-08T04:35:36;64418.37;;;-1.29;100.00
44675;BME280;30388;52.038;-1.478;2023-03-08T04:38:03;64406.64;;;-1.65;100.00
44675;BME280;30388;52.038;-1.478;2023-03-08T04:40:30;64416.04;;;-1.04;100.00
44675;BME280;30388;52.038;-1.478;2023-03-08T04:42:58;64410.24;;;-1.39;100.00
44675;BME280;30388;52.038;-1.478;2023-03-08T04:45:25;64442.06;;;-1.20;100.00
44675;BME280;30388;52.038;-1.478;2023-03-08T04:47:53;64432.45;;;-1.55;100.00
44675;BME280;30388;52.038;-1.478;2023-03-08T04:50:19;64464.94;;;-1.13;100.00
44675;BME280;30388;52.038;-1.478;2023-03-08T04:52:46;64466.36;;;-0.89;100.00
44675;BME280;30388;52.038;-1.478;2023-03-08T04:55:14;64432.52;;;-1.32;100.00
44675;BME280;30388;52.038;-1.478;2023-03-08T04:57:41;64421.06;;;-1.47;100.00
44675;BME280;30388;52.038;-1.478;2023-03-08T05:00:11;64415.11;;;-1.55;100.00
44675;BME280;30388;52.038;-1.478;2023-03-08T05:02:38;64450.44;;;-1.32;100.00
44675;BME280;30388;52.038;-1.478;2023-03-08T05:05:05;64456.75;;;-1.01;100.00
44675;BME280;30388;52.038;-1.478;2023-03-08T05:07:32;64409.92;;;-1.62;100.00
44675;BME280;30388;52.038;-1.478;2023-03-08T05:10:00;64387.05;;;-1.42;100.00
44675;BME280;30388;52.038;-1.478;2023-03-08T05:12:28;64366.44;;;-1.68;100.00
44675;BME280;30388;52.038;-1.478;2023-03-08T05:14:55;64396.54;;;-1.29;100.00
44675;BME280;30388;52.038;-1.478;2023-03-08T05:17:22;64375.44;;;-1.56;100.00
44675;BME280;30388;52.038;-1.478;2023-03-08T05:19:50;64351.03;;;-1.88;100.00
44675;BME280;30388;52.038;-1.478;2023-03-08T05:22:17;64352.12;;;-1.87;100.00
44675;BME280;30388;52.038;-1.478;2023-03-08T05:24:45;64371.31;;;-1.88;100.00
44675;BME280;30388;52.038;-1.478;2023-03-08T05:27:12;64365.55;;;-1.68;100.00
44675;BME280;30388;52.038;-1.478;2023-03-08T05:29:39;64331.40;;;-2.13;100.00
44675;BME280;30388;52.038;-1.478;2023-03-08T05:32:10;64337.68;;;-1.61;100.00
44675;BME280;30388;52.038;-1.478;2023-03-08T05:34:37;64371.97;;;-2.10;100.00
44675;BME280;30388;52.038;-1.478;2023-03-08T05:37:05;64377.48;;;-1.54;100.00
44675;BME280;30388;52.038;-1.478;2023-03-08T05:39:31;64384.76;;;-1.71;100.00
44675;BME280;30388;52.038;-1.478;2023-03-08T05:41:58;64374.39;;;-1.58;100.00
44675;BME280;30388;52.038;-1.478;2023-03-08T05:44:25;64347.33;;;-1.92;100.00
44675;BME280;30388;52.038;-1.478;2023-03-08T05:46:52;64323.29;;;-2.23;100.00
44675;BME280;30388;52.038;-1.478;2023-03-08T05:49:19;64329.39;;;-2.15;100.00
44675;BME280;30388;52.038;-1.478;2023-03-08T05:51:47;64347.19;;;-1.92;100.00
44675;BME280;30388;52.038;-1.478;2023-03-08T05:54:14;64352.83;;;-2.34;100.00
44675;BME280;30388;52.038;-1.478;2023-03-08T05:56:41;64387.80;;;-1.89;100.00
44675;BME280;30388;52.038;-1.478;2023-03-08T05:59:09;64405.09;;;-1.67;100.00
44675;BME280;30388;52.038;-1.478;2023-03-08T06:01:36;64379.63;;;-1.77;100.00
44675;BME280;30388;52.038;-1.478;2023-03-08T06:04:04;64356.21;;;-1.81;100.00
44675;BME280;30388;52.038;-1.478;2023-03-08T06:06:31;64358.48;;;-1.78;100.00
44675;BME280;30388;52.038;-1.478;2023-03-08T06:08:58;64356.17;;;-1.81;100.00
44675;BME280;30388;52.038;-1.478;2023-03-08T06:11:25;64368.80;;;-1.92;100.00
44675;BME280;30388;52.038;-1.478;2023-03-08T06:13:52;64364.50;;;-1.97;100.00
44675;BME280;30388;52.038;-1.478;2023-03-08T06:16:20;64355.96;;;-1.82;100.00
44675;BME280;30388;52.038;-1.478;2023-03-08T06:18:48;64366.17;;;-1.68;100.00
44675;BME280;30388;52.038;-1.478;2023-03-08T06:21:17;64394.47;;;-1.81;100.00
44675;BME280;30388;52.038;-1.478;2023-03-08T06:23:45;64383.57;;;-1.46;100.00
44675;BME280;30388;52.038;-1.478;2023-03-08T06:26:12;64371.52;;;-1.61;100.00
44675;BME280;30388;52.038;-1.478;2023-03-08T06:28:40;64353.50;;;-1.85;100.00
44675;BME280;30388;52.038;-1.478;2023-03-08T06:31:09;64354.50;;;-2.10;100.00
44675;BME280;30388;52.038;-1.478;2023-03-08T06:33:37;64358.08;;;-1.80;100.00
44675;BME280;30388;52.038;-1.478;2023-03-08T06:36:07;64378.92;;;-1.79;100.00
44675;BME280;30388;52.038;-1.478;2023-03-08T06:38:36;64419.49;;;-1.49;100.00
44675;BME280;30388;52.038;-1.478;2023-03-08T06:41:04;64390.34;;;-1.37;100.00
44675;BME280;30388;52.038;-1.478;2023-03-08T06:43:31;64370.46;;;-1.62;100.00
44675;BME280;30388;52.038;-1.478;2023-03-08T06:46:02;64373.07;;;-2.09;100.00
44675;BME280;30388;52.038;-1.478;2023-03-08T06:48:30;64391.25;;;-1.85;100.00
44675;BME280;30388;52.038;-1.478;2023-03-08T06:50:57;64357.01;;;-2.07;100.00
44675;BME280;30388;52.038;-1.478;2023-03-08T06:53:24;64364.46;;;-1.70;100.00
44675;BME280;30388;52.038;-1.478;2023-03-08T06:55:52;64355.87;;;-1.82;100.00
44675;BME280;30388;52.038;-1.478;2023-03-08T06:58:19;64351.74;;;-1.87;100.00
44675;BME280;30388;52.038;-1.478;2023-03-08T07:00:47;64378.83;;;-2.02;100.00
44675;BME280;30388;52.038;-1.478;2023-03-08T07:03:15;64353.29;;;-1.85;100.00
44675;BME280;30388;52.038;-1.478;2023-03-08T07:05:42;64339.99;;;-2.02;100.00
44675;BME280;30388;52.038;-1.478;2023-03-08T07:08:09;64326.72;;;-2.19;100.00
44675;BME280;30388;52.038;-1.478;2023-03-08T07:10:37;64364.69;;;-1.70;100.00
44675;BME280;30388;52.038;-1.478;2023-03-08T07:13:05;64375.77;;;-1.56;100.00
44675;BME280;30388;52.038;-1.478;2023-03-08T07:15:31;64349.43;;;-2.16;100.00
44675;BME280;30388;52.038;-1.478;2023-03-08T07:17:59;64362.84;;;-1.73;100.00
44675;BME280;30388;52.038;-1.478;2023-03-08T07:20:26;64343.21;;;-1.98;100.00
44675;BME280;30388;52.038;-1.478;2023-03-08T07:22:53;64349.09;;;-1.68;100.00
44675;BME280;30388;52.038;-1.478;2023-03-08T07:25:21;64328.79;;;-2.16;100.00
44675;BME280;30388;52.038;-1.478;2023-03-08T07:27:48;64308.07;;;-2.43;100.00
44675;BME280;30388;52.038;-1.478;2023-03-08T07:30:16;64308.45;;;-2.20;100.00
44675;BME280;30388;52.038;-1.478;2023-03-08T07:32:43;64310.85;;;-2.17;100.00
44675;BME280;30388;52.038;-1.478;2023-03-08T07:35:12;64296.40;;;-2.13;100.00
44675;BME280;30388;52.038;-1.478;2023-03-08T07:37:42;64320.13;;;-2.28;100.00
44675;BME280;30388;52.038;-1.478;2023-03-08T07:40:11;64357.22;;;-1.79;100.00
44675;BME280;30388;52.038;-1.478;2023-03-08T07:42:39;64336.52;;;-2.06;100.00
44675;BME280;30388;52.038;-1.478;2023-03-08T07:45:06;64349.84;;;-1.89;100.00
44675;BME280;30388;52.038;-1.478;2023-03-08T07:47:34;64350.62;;;-1.88;100.00
44675;BME280;30388;52.038;-1.478;2023-03-08T07:50:01;64360.37;;;-1.76;100.00
44675;BME280;30388;52.038;-1.478;2023-03-08T07:52:29;64360.99;;;-2.23;100.00
44675;BME280;30388;52.038;-1.478;2023-03-08T07:54:57;64352.86;;;-1.85;100.00
44675;BME280;30388;52.038;-1.478;2023-03-08T07:57:24;64340.74;;;-2.01;100.00
44675;BME280;30388;52.038;-1.478;2023-03-08T07:59:54;64344.99;;;-1.96;100.00
44675;BME280;30388;52.038;-1.478;2023-03-08T08:02:21;64361.37;;;-1.74;100.00
44675;BME280;30388;52.038;-1.478;2023-03-08T08:04:49;64349.45;;;-1.90;100.00
44675;BME280;30388;52.038;-1.478;2023-03-08T08:07:17;64333.41;;;-2.37;100.00
44675;BME280;30388;52.038;-1.478;2023-03-08T08:09:44;64306.44;;;-2.23;100.00
44675;BME280;30388;52.038;-1.478;2023-03-08T08:12:11;64301.05;;;-2.07;100.00
44675;BME280;30388;52.038;-1.478;2023-03-08T08:14:38;64299.15;;;-2.09;100.00
44675;BME280;30388;52.038;-1.478;2023-03-08T08:17:06;64296.64;;;-2.13;100.00
44675;BME280;30388;52.038;-1.478;2023-03-08T08:19:33;64275.39;;;-2.63;100.00
44675;BME280;30388;52.038;-1.478;2023-03-08T08:22:00;64313.18;;;-2.36;100.00
44675;BME280;30388;52.038;-1.478;2023-03-08T08:24:27;64341.09;;;-1.78;100.00
44675;BME280;30388;52.038;-1.478;2023-03-08T08:26:54;64333.94;;;-2.09;100.00
44675;BME280;30388;52.038;-1.478;2023-03-08T08:29:22;64292.72;;;-2.18;100.00
44675;BME280;30388;52.038;-1.478;2023-03-08T08:31:49;64316.00;;;-2.11;100.00
44675;BME280;30388;52.038;-1.478;2023-03-08T08:34:17;64328.82;;;-1.94;100.00
44675;BME280;30388;52.038;-1.478;2023-03-08T08:36:45;64335.92;;;-1.85;100.00
44675;BME280;30388;52.038;-1.478;2023-03-08T08:39:12;64334.37;;;-1.87;100.00
44675;BME280;30388;52.038;-1.478;2023-03-08T08:41:40;64298.85;;;-2.10;100.00
44675;BME280;30388;52.038;-1.478;2023-03-08T08:44:07;64318.21;;;-1.85;100.00
44675;BME280;30388;52.038;-1.478;2023-03-08T08:46:35;64301.00;;;-2.07;100.00
44675;BME280;30388;52.038;-1.478;2023-03-08T08:49:02;64308.48;;;-1.97;100.00
44675;BME280;30388;52.038;-1.478;2023-03-08T08:51:30;64300.20;;;-2.08;100.00
44675;BME280;30388;52.038;-1.478;2023-03-08T08:53:58;64331.38;;;-2.13;100.00
44675;BME280;30388;52.038;-1.478;2023-03-08T08:56:26;64329.50;;;-1.93;100.00
44675;BME280;30388;52.038;-1.478;2023-03-08T08:58:54;64341.02;;;-1.78;100.00
44675;BME280;30388;52.038;-1.478;2023-03-08T09:01:23;64319.47;;;-2.06;100.00
44675;BME280;30388;52.038;-1.478;2023-03-08T09:03:51;64325.71;;;-1.98;100.00
44675;BME280;30388;52.038;-1.478;2023-03-08T09:06:20;64340.63;;;-1.79;100.00
44675;BME280;30388;52.038;-1.478;2023-03-08T09:08:50;64310.74;;;-1.95;100.00
44675;BME280;30388;52.038;-1.478;2023-03-08T09:11:17;64344.86;;;-1.95;100.00
44675;BME280;30388;52.038;-1.478;2023-03-08T09:13:45;64339.78;;;-1.80;100.00
44675;BME280;30388;52.038;-1.478;2023-03-08T09:16:22;64325.76;;;-1.76;100.00
44675;BME280;30388;52.038;-1.478;2023-03-08T09:18:50;64338.98;;;-2.04;100.00
44675;BME280;30388;52.038;-1.478;2023-03-08T09:21:17;64363.16;;;-1.50;100.00
44675;BME280;30388;52.038;-1.478;2023-03-08T09:23:45;64348.31;;;-1.91;100.00
44675;BME280;30388;52.038;-1.478;2023-03-08T09:26:13;64384.53;;;-1.44;100.00
44675;BME280;30388;52.038;-1.478;2023-03-08T09:28:40;64393.37;;;-1.60;100.00
44675;BME280;30388;52.038;-1.478;2023-03-08T09:31:09;64392.75;;;-1.61;100.00
44675;BME280;30388;52.038;-1.478;2023-03-08T09:33:37;64338.83;;;-1.59;100.00
44675;BME280;30388;52.038;-1.478;2023-03-08T09:36:05;64343.47;;;-1.76;100.00
44675;BME280;30388;52.038;-1.478;2023-03-08T09:38:32;64342.14;;;-1.77;100.00
44675;BME280;30388;52.038;-1.478;2023-03-08T09:41:13;64334.74;;;-1.64;100.00
44675;BME280;30388;52.038;-1.478;2023-03-08T09:43:54;64312.48;;;-2.15;100.00
44675;BME280;30388;52.038;-1.478;2023-03-08T09:46:31;64334.32;;;-1.87;100.00
44675;BME280;30388;52.038;-1.478;2023-03-08T09:49:02;64339.22;;;-2.03;100.00
44675;BME280;30388;52.038;-1.478;2023-03-08T09:51:35;64338.64;;;-2.04;100.00
44675;BME280;30388;52.038;-1.478;2023-03-08T09:54:08;64368.69;;;-1.65;100.00
44675;BME280;30388;52.038;-1.478;2023-03-08T09:56:42;64389.46;;;-1.64;100.00
44675;BME280;30388;52.038;-1.478;2023-03-08T09:59:13;64404.81;;;-1.68;100.00
44675;BME280;30388;52.038;-1.478;2023-03-08T10:01:48;64399.26;;;-1.75;100.00
44675;BME280;30388;52.038;-1.478;2023-03-08T10:04:45;64383.17;;;-1.47;100.00
44675;BME280;30388;52.038;-1.478;2023-03-08T10:07:23;64382.20;;;-1.47;100.00
44675;BME280;30388;52.038;-1.478;2023-03-08T10:10:02;64381.18;;;-1.48;100.00
44675;BME280;30388;52.038;-1.478;2023-03-08T10:12:48;64407.32;;;-1.64;100.00
44675;BME280;30388;52.038;-1.478;2023-03-08T10:15:20;64389.67;;;-1.64;100.00
44675;BME280;30388;52.038;-1.478;2023-03-08T10:17:52;64399.15;;;-1.74;100.00
44675;BME280;30388;52.038;-1.478;2023-03-08T10:20:23;64386.45;;;-1.42;100.00
44675;BME280;30388;52.038;-1.478;2023-03-08T10:22:59;64369.21;;;-1.64;100.00
44675;BME280;30388;52.038;-1.478;2023-03-08T10:25:29;64339.92;;;-1.79;100.00
44675;BME280;30388;52.038;-1.478;2023-03-08T10:27:58;64350.41;;;-1.88;100.00
44675;BME280;30388;52.038;-1.478;2023-03-08T10:30:30;64376.06;;;-1.56;100.00
44675;BME280;30388;52.038;-1.478;2023-03-08T10:32:59;64375.76;;;-1.56;100.00
44675;BME280;30388;52.038;-1.478;2023-03-08T10:35:32;64398.74;;;-1.53;100.00
44675;BME280;30388;52.038;-1.478;2023-03-08T10:38:00;64414.61;;;-1.06;100.00
44675;BME280;30388;52.038;-1.478;2023-03-08T10:40:27;64436.74;;;-1.50;100.00
44675;BME280;30388;52.038;-1.478;2023-03-08T10:43:05;64432.80;;;-1.54;100.00
44675;BME280;30388;52.038;-1.478;2023-03-08T10:45:32;64421.84;;;-1.45;100.00
44675;BME280;30388;52.038;-1.478;2023-03-08T10:48:01;64420.61;;;-1.48;100.00
44675;BME280;30388;52.038;-1.478;2023-03-08T10:50:32;64404.44;;;-1.46;100.00
44675;BME280;30388;52.038;-1.478;2023-03-08T10:53:09;64385.04;;;-1.44;100.00
44675;BME280;30388;52.038;-1.478;2023-03-08T10:55:43;64394.22;;;-1.59;100.00
44675;BME280;30388;52.038;-1.478;2023-03-08T10:58:27;64417.37;;;-1.51;100.00
44675;BME280;30388;52.038;-1.478;2023-03-08T11:00:57;64353.77;;;-1.62;100.00
44675;BME280;30388;52.038;-1.478;2023-03-08T11:03:25;64379.51;;;-1.51;100.00
44675;BME280;30388;52.038;-1.478;2023-03-08T11:05:57;64410.72;;;-1.61;100.00
44675;BME280;30388;52.038;-1.478;2023-03-08T11:08:27;64381.70;;;-1.49;100.00
44675;BME280;30388;52.038;-1.478;2023-03-08T11:11:04;64374.80;;;-1.84;100.00
44675;BME280;30388;52.038;-1.478;2023-03-08T11:13:33;64368.75;;;-1.64;100.00
44675;BME280;30388;52.038;-1.478;2023-03-08T11:16:10;64370.99;;;-1.62;100.00
44675;BME280;30388;52.038;-1.478;2023-03-08T11:18:49;64380.06;;;-1.50;100.00
44675;BME280;30388;52.038;-1.478;2023-03-08T11:21:22;64417.12;;;-1.52;100.00
44675;BME280;30388;52.038;-1.478;2023-03-08T11:23:58;64410.33;;;-1.12;100.00
44675;BME280;30388;52.038;-1.478;2023-03-08T11:26:36;64385.72;;;-1.43;100.00
44675;BME280;30388;52.038;-1.478;2023-03-08T11:29:13;64382.68;;;-1.47;100.00
44675;BME280;30388;52.038;-1.478;2023-03-08T11:31:55;64359.45;;;-1.32;100.00
44675;BME280;30388;52.038;-1.478;2023-03-08T11:34:41;64405.93;;;-1.17;100.00
44675;BME280;30388;52.038;-1.478;2023-03-08T11:37:17;64378.37;;;-1.52;100.00
44675;BME280;30388;52.038;-1.478;2023-03-08T11:39:50;64377.32;;;-1.31;100.00
44675;BME280;30388;52.038;-1.478;2023-03-08T11:42:27;64399.65;;;-1.75;100.00
44675;BME280;30388;52.038;-1.478;2023-03-08T11:45:07;64419.70;;;-0.99;100.00
44675;BME280;30388;52.038;-1.478;2023-03-08T11:48:02;64435.92;;;-1.27;100.00
44675;BME280;30388;52.038;-1.478;2023-03-08T11:50:37;64416.75;;;-1.03;100.00
44675;BME280;30388;52.038;-1.478;2023-03-08T11:53:17;64394.38;;;-1.32;100.00
44675;BME280;30388;52.038;-1.478;2023-03-08T11:56:07;64413.97;;;-1.33;100.00
44675;BME280;30388;52.038;-1.478;2023-03-08T11:58:42;64431.36;;;-0.85;100.00
44675;BME280;30388;52.038;-1.478;2023-03-08T12:01:18;64466.59;;;-0.88;100.00
44675;BME280;30388;52.038;-1.478;2023-03-08T12:03:49;64456.71;;;-1.01;100.00
44675;BME280;30388;52.038;-1.478;2023-03-08T12:06:22;64479.86;;;-0.72;100.00
44675;BME280;30388;52.038;-1.478;2023-03-08T12:08:58;64469.87;;;-0.84;100.00
44675;BME280;30388;52.038;-1.478;2023-03-08T12:11:29;64476.62;;;-0.75;100.00
44675;BME280;30388;52.038;-1.478;2023-03-08T12:14:09;64482.65;;;-0.68;100.00
44675;BME280;30388;52.038;-1.478;2023-03-08T12:16:42;64462.32;;;-0.93;100.00
44675;BME280;30388;52.038;-1.478;2023-03-08T12:19:18;64428.57;;;-0.88;100.00
44675;BME280;30388;52.038;-1.478;2023-03-08T12:21:50;64429.94;;;-0.86;100.00
44675;BME280;30388;52.038;-1.478;2023-03-08T12:24:26;64428.96;;;-1.14;100.00
44675;BME280;30388;52.038;-1.478;2023-03-08T12:26:58;64457.12;;;-0.51;100.00
44675;BME280;30388;52.038;-1.478;2023-03-08T12:29:32;64459.43;;;-0.97;100.00
44675;BME280;30388;52.038;-1.478;2023-03-08T12:32:02;64450.62;;;-0.87;100.00
44675;BME280;30388;52.038;-1.478;2023-03-08T12:34:37;64451.89;;;-1.07;100.00
44675;BME280;30388;52.038;-1.478;2023-03-08T12:37:19;64455.61;;;-1.02;100.00
44675;BME280;30388;52.038;-1.478;2023-03-08T12:39:56;64438.02;;;-1.01;100.00
44675;BME280;30388;52.038;-1.478;2023-03-08T12:42:29;64413.92;;;-1.07;100.00
44675;BME280;30388;52.038;-1.478;2023-03-08T12:45:06;64466.88;;;-0.88;100.00
44675;BME280;30388;52.038;-1.478;2023-03-08T12:47:33;64408.00;;;-1.41;100.00
44675;BME280;30388;52.038;-1.478;2023-03-08T12:50:08;64417.93;;;-1.02;100.00
44675;BME280;30388;52.038;-1.478;2023-03-08T12:52:36;64451.44;;;-1.08;100.00
44675;BME280;30388;52.038;-1.478;2023-03-08T12:55:06;64429.80;;;-0.86;100.00
44675;BME280;30388;52.038;-1.478;2023-03-08T12:57:47;64451.87;;;-1.07;100.00
44675;BME280;30388;52.038;-1.478;2023-03-08T13:00:32;64485.84;;;-0.63;100.00
44675;BME280;30388;52.038;-1.478;2023-03-08T13:03:03;64428.41;;;-0.88;100.00
44675;BME280;30388;52.038;-1.478;2023-03-08T13:05:34;64455.02;;;-1.03;100.00